Ithaca, New York
Current Conditions -  °F | °C
As of 8:56 AM on Monday 24 Nov 2014 (Local Time) from KITH Reporting Station
Scattered Clouds Scattered Clouds  
Wind Chill: 16°   Ceiling: Unl
Heat Index: 16°   Visibility: 10mi
Dew Point: 12°   Wind: 18mph
Humidity: 78%   Direction: 190°S
Pressure: 29.49"   Gusts: 26mph
Location:  42.44°N, 76.49°W
Report Text: KITH 241356Z 19016G23KT 10SM SCT020 SCT040 16/12 A2949 RMK AO2 T01610122 SLP986
Loading
Personal Weather Stations






























Interactive Weather Map New forecast layout! Learn more

10-Day Weather Forecast

Advertisements
Track Severe Weather on mobile